Portada
METAR-TAF:

METAR-TAF

Aeropuertos :

Ciudad de Kuwait, Kuwait

Aeropuerto Internacional de Kuwait

latitud: 29-13N, longitud: 047-59E, altitud: 55 m

Observación

El informe se hizo hace 11 minutos, a las 13:00 UTC
Viento 6 kt del este-noreste
Temperatura 35°C
Humedad 17%
Presión 1009 hPa
Visibilidad 10 km o más
sin nubes por debajo de 1500 m y sin presencia de cumulonimbus.

METAR: OKBK 171300Z 06006KT CAVOK 35/06 Q1009

Hora: 16:11 (13:11 UTC)

Pronóstico

El informe se hizo hace 2 horas y 26 minutos, a las 10:45 UTC
Pronóstico válido del 17 a las 12 UTC al 18 a las 18 UTC
Viento 10 kt del norte-noreste con ráfagas de 20 kt
Visibilidad: 7000 m
Temporalmente
del 17 a las 18 UTC al 18 a las 03 UTC
Visibilidad: 3000 m
Escasas nubes a una altura de 4000 ft
Ventisca alta de polvo

TAF: OKBK 171045Z 1712/1818 02010G20KT 7000 NSC TEMPO 1718/1803 3000 BLDU FEW040

Observaciones y pronósticos meteorológicos de más de 4000 aeropuertos (mensajes METAR y TAF).

Los puntos amarillos y rojos representan las estaciones disponibles.

Ponga el ratón en el punto deseado para ver el nombre de la estación.

Haga clic para ver las observaciones y los pronósticos meteorológicos.

Para cambiar el mapa : haga clic en los botones verdes con una cruz de color negro para hacer un zoom, en el botón verde con un guión para alejar o en las flechas verdes para mapas adyacentes.


METAR-TAF: